Sikuliaq — WDG7520 — position and weather

sailwx.info

Track history (hours):
 
Tides and Currents Weather Stations Pressure Air Temp Water Temp Dewpoint Dewpoint Depression Visibility Wind Speed Wind Dir Waves Ship Positions

Oceanographic research ship Sikuliaq (USA)

Owner: Mackay Communications, Raleigh, NC. More information available from US FCC via Universal Licensing System.

Last reported at 2019-Apr-24 21:00 UTC. Time now 2019-Apr-24 22:26 UTC.
Position N 46°48' W 124°54'.

Length 80 m; draft 6.2 m.

Type: Other ship. MMSI: 338417000.

Wind from 340 at 15 knots

Barometer 1028.9 mb
Air temperature 9.5 ° C
Dewpoint 3.4 ° C

Date/timePositionNaut miles runAvg speedWind from/ knotsBaromVisibWave heightAir tempDewpointWater temp
2019-Apr-24 21:00N 46°48' W 124°54'3 6.5 340 / 151028.9 9.5 3.4
2019-Apr-24 20:32N 46°51' W 124°56'0 0.4
2019-Apr-24 20:14N 46°50' W 124°56'1 4.3
2019-Apr-24 20:00N 46°50' W 124°58'3180.3
2019-Apr-24 20:00N 46°48' W 125°00'611.0 340 / 171028.9 9.7 3.9
2019-Apr-24 19:28N 46°52' W 124°53'4 9.3
2019-Apr-24 19:00N 46°54' W 124°48'0301.3 350 / 161029.0 9.8 3.5
2019-Apr-24 18:59N 46°54' W 124°47'10 9.9
2019-Apr-24 18:00N 47°00' W 124°36'0 0.0 350 / 131028.7 9.8 3.2
2019-Apr-24 17:00N 47°00' W 124°36'0 0.0 350 / 131028.3 9.7 3.7
2019-Apr-24 16:00N 47°00' W 124°36'0 0.0 350 / 161028.0 9.8 4.6
2019-Apr-24 15:00N 47°00' W 124°36'0 0.0 340 / 141028.2 9.7 4.1
2019-Apr-24 14:00N 47°00' W 124°36'4 4.1 350 / 141027.5 9.7 2.9
2019-Apr-24 13:08N 46°57' W 124°34'111.2
2019-Apr-24 13:00N 46°55' W 124°33'2228.7
2019-Apr-24 13:00N 46°54' W 124°36'5 9.8 350 / 171026.6 9.4 3.6
2019-Apr-24 12:31N 46°50' W 124°32'611.5
2019-Apr-24 12:01N 46°44' W 124°31'2139.1
2019-Apr-24 12:00N 46°42' W 124°30'3 6.8 350 / 201026.4 9.3 2.7
2019-Apr-24 11:31N 46°39' W 124°30'611.1
2019-Apr-24 11:00N 46°33' W 124°29'3203.9
2019-Apr-24 11:00N 46°30' W 124°30'3 5.4 340 / 191026.3 9.3 3.2
2019-Apr-24 10:30N 46°28' W 124°28'510.6
2019-Apr-24 10:01N 46°23' W 124°27'2133.5
2019-Apr-24 10:00N 46°24' W 124°24'714.2 340 / 211026.1 9.4 2.7
2019-Apr-24 09:31N 46°17' W 124°26'611.2
2019-Apr-24 09:01N 46°12' W 124°25'142.8
2019-Apr-24 09:00N 46°12' W 124°24'611.9 340 / 171026.0 9.6 3.0
2019-Apr-24 08:30N 46°06' W 124°24'510.7
2019-Apr-24 08:00N 46°01' W 124°24'155.8
2019-Apr-24 08:00N 46°00' W 124°24'5 9.4 340 / 221025.6 9.8 3.1
2019-Apr-24 07:30N 45°55' W 124°25'714.5
2019-Apr-24 07:00N 45°48' W 124°24'24170.2 340 / 201025.4 9.8 1.3
2019-Apr-24 06:59N 45°50' W 124°26'510.9
2019-Apr-24 06:30N 45°45' W 124°26'510.9
2019-Apr-24 06:00N 45°39' W 124°26'3184.4
2019-Apr-24 06:00N 45°42' W 124°24'817.1 350 / 201025.4 10.0 1.8
2019-Apr-24 05:30N 45°34' W 124°26'611.2
2019-Apr-24 05:00N 45°28' W 124°24'2202.6
2019-Apr-24 05:00N 45°30' W 124°24'715.2 350 / 211025.1 10.2 3.6
2019-Apr-24 04:30N 45°23' W 124°23'611.3
2019-Apr-24 04:00N 45°17' W 124°23'194.3
2019-Apr-24 04:00N 45°18' W 124°24'1012.6 350 / 191024.6 10.2 4.1
2019-Apr-24 03:11N 45°08' W 124°22'212.2
2019-Apr-24 03:00N 45°06' W 124°24'1312.7 1024.2 10.4 4.6
2019-Apr-24 02:00N 44°54' W 124°18'7 7.4 350 / 181024.2 10.5 6.0
2019-Apr-24 01:00N 44°48' W 124°12'1312.7 360 / 191024.3 10.4 7.4
2019-Apr-24 00:00N 44°36' W 124°06'4 4.3 350 / 191024.0 10.2 8.4
2019-Apr-23 23:00N 44°36' W 124°00'0 0.0 320 / 141024.1 11.6 7.6
2019-Apr-23 22:00N 44°36' W 124°00'0 0.0 320 / 111024.6 11.8 8.5
2019-Apr-23 21:00N 44°36' W 124°00'0 0.0 330 / 101024.8 11.9 8.9
2019-Apr-23 20:00N 44°36' W 124°00'0 0.0 320 / 81024.8 11.4 9.3
2019-Apr-23 19:00N 44°36' W 124°00'0 0.0 320 / 81024.9 11.610.4
2019-Apr-23 18:00N 44°36' W 124°00'0 0.0 310 / 41024.6 12.310.6
2019-Apr-23 17:00N 44°36' W 124°00'0 0.0 260 / 61024.5 11.610.7
2019-Apr-23 16:00N 44°36' W 124°00'0 0.0 330 / 21024.6 11.2 9.7
2019-Apr-23 15:00N 44°36' W 124°00'0 0.0 110 / 51023.8 10.5 8.8
2019-Apr-23 14:00N 44°36' W 124°00'0 0.0 090 / 51023.8 10.3 8.5
2019-Apr-23 13:00N 44°36' W 124°00'0 0.0 100 / 41023.6 10.3 8.0
2019-Apr-23 12:00N 44°36' W 124°00'0 0.0 100 / 31023.6 10.5 7.9
2019-Apr-23 11:00N 44°36' W 124°00'0 0.0 100 / 51023.6 10.6 7.5
2019-Apr-23 10:00N 44°36' W 124°00'0 0.0 080 / 41023.8 10.3 7.4
2019-Apr-23 09:00N 44°36' W 124°00'0 0.0 090 / 51024.1 10.7 7.0
2019-Apr-23 08:00N 44°36' W 124°00'0 0.0 100 / 31024.4 10.5 7.8
2019-Apr-23 07:00N 44°36' W 124°00'0 0.0 010 / 21024.4 11.1 7.7
2019-Apr-23 06:00N 44°36' W 124°00'0 0.0 110 / 31024.3 10.6 7.3
2019-Apr-23 05:00N 44°36' W 124°00'0 0.0 100 / 41024.8 10.7 8.2
2019-Apr-23 04:00N 44°36' W 124°00'0 0.0 140 / 31024.9 10.8 6.9
2019-Apr-23 03:00N 44°36' W 124°00'0 0.0 320 / 31025.0 11.3 7.1
2019-Apr-23 02:00N 44°36' W 124°00'0 0.0 310 / 21025.2 12.8 3.1
2019-Apr-23 01:00N 44°36' W 124°00'0 0.0 260 / 31025.6 13.4 5.3
2019-Apr-23 00:00N 44°36' W 124°00'0 0.0 250 / 11025.4 14.1 6.0
2019-Apr-22 23:00N 44°36' W 124°00'0 0.0 250 / 21025.8 13.2 6.1
2019-Apr-22 22:00N 44°36' W 124°00'0 0.0 280 / 21026.5 12.4 8.2
2019-Apr-22 21:00N 44°36' W 124°00'0 0.0 300 / 41026.6 11.9 8.3
2019-Apr-22 20:00N 44°36' W 124°00'0 0.0 280 / 31026.5 12.1 8.0
2019-Apr-22 19:00N 44°36' W 124°00'0 0.0 260 / 61026.1 12.6 8.3
2019-Apr-22 18:00N 44°36' W 124°00'0 0.0 140 / 41025.3 14.0 7.7
2019-Apr-22 17:00N 44°36' W 124°00'0 0.0 130 / 61025.8 10.5 7.1
2019-Apr-22 16:00N 44°36' W 124°00'0 0.0 140 / 71026.3 7.7 6.1
2019-Apr-22 15:00N 44°36' W 124°00'0 0.0 120 / 81026.8 7.0 5.2
2019-Apr-22 14:00N 44°36' W 124°00'0 0.0 110 / 81026.1 6.4 5.0
2019-Apr-22 13:00N 44°36' W 124°00'0 0.0 100 / 71025.7 6.3 5.3
2019-Apr-22 12:00N 44°36' W 124°00'0 0.0 100 / 61025.4 6.6 5.6
2019-Apr-22 11:00N 44°36' W 124°00'0 0.0 100 / 51025.4 6.5 5.2
2019-Apr-22 10:00N 44°36' W 124°00'0 0.0 100 / 51025.5 6.9 5.6
2019-Apr-22 09:00N 44°36' W 124°00'0 0.0 100 / 51026.1 7.4 5.8
2019-Apr-22 08:00N 44°36' W 124°00'0 0.0 090 / 31026.8 8.3 6.1
2019-Apr-22 07:00N 44°36' W 124°00'0 0.0 100 / 51026.8 8.6 5.7
2019-Apr-22 06:00N 44°36' W 124°00'0 0.0 040 / 11027.0 9.2 5.8
2019-Apr-22 05:00N 44°36' W 124°00'0 0.0 070 / 41026.8 9.5 5.6
2019-Apr-22 04:00N 44°36' W 124°00'0 0.0 070 / 41026.9 9.7 5.1
2019-Apr-22 03:00N 44°36' W 124°00'0 0.0 350 / 121026.3 10.1 5.2
2019-Apr-22 02:00N 44°36' W 124°00'0 0.0 330 / 111026.2 10.5 5.3
2019-Apr-22 01:00N 44°36' W 124°00'0 0.0 330 / 101026.3 10.8 5.2
2019-Apr-22 00:00N 44°36' W 124°00'0 0.0 320 / 111026.6 11.0 4.9
2019-Apr-21 23:00N 44°36' W 124°00'4 4.3 320 / 121027.1 10.7 4.8
2019-Apr-21 22:00N 44°36' W 124°06'6 6.0 330 / 151027.3 10.3 5.2
2019-Apr-21 21:00N 44°42' W 124°06'7 7.4 350 / 131027.5 10.1 4.7
2019-Apr-21 20:00N 44°36' W 124°12'4 4.3 350 / 111027.4 10.0 4.1
2019-Apr-21 19:00N 44°36' W 124°18'0 0.0 020 / 111027.9 10.0 3.9
2019-Apr-21 18:00N 44°36' W 124°18'0 0.0 010 / 91027.8 9.9 3.9
2019-Apr-21 17:00N 44°36' W 124°18'0 0.0 350 / 101027.8 10.0 4.3
2019-Apr-21 16:00N 44°36' W 124°18'0 0.0 1027.3 10.2 5.1
2019-Apr-21 15:00N 44°36' W 124°18'0 0.0 350 / 111026.7 10.2 5.5
2019-Apr-21 14:00N 44°36' W 124°18'0 0.0 330 / 121026.2 10.0 5.4
2019-Apr-21 13:00N 44°36' W 124°18'0 0.0 330 / 121026.1 10.3 4.5
2019-Apr-21 12:00N 44°36' W 124°18'0 0.0 350 / 81025.5 10.2 4.1
2019-Apr-21 11:00N 44°36' W 124°18'0 0.0 320 / 101025.1 10.1 4.9
2019-Apr-21 10:00N 44°36' W 124°18'9 8.5 340 / 111024.6 10.1 4.6
2019-Apr-21 09:00N 44°36' W 124°30'9 8.5 350 / 101024.3 10.0 4.0
2019-Apr-21 08:00N 44°36' W 124°42'4 4.3 320 / 111024.2 10.0 4.0
2019-Apr-21 07:00N 44°36' W 124°48'7 7.4 010 / 101023.8 10.1 4.4
2019-Apr-21 06:00N 44°30' W 124°54'7 7.4 340 / 141023.4 10.1 4.0
2019-Apr-21 05:00N 44°24' W 125°00'0 0.0 340 / 151023.3 9.9 2.8
2019-Apr-21 04:00N 44°24' W 125°00'0 0.0 350 / 141022.8 10.0 2.9
2019-Apr-21 03:00N 44°24' W 125°00'0 0.0 340 / 161022.2 9.9 2.9
2019-Apr-21 02:00N 44°24' W 125°00'0 0.0 350 / 181021.8 10.0 4.3
2019-Apr-21 01:00N 44°24' W 125°00'4 4.3 340 / 161021.4 10.0 4.1
2019-Apr-21 00:00N 44°24' W 124°54'0 0.0 330 / 171021.2 9.9 4.7
2019-Apr-20 23:00N 44°24' W 124°54'0 0.0 350 / 161020.7 10.0 3.9
2019-Apr-20 22:00N 44°24' W 124°54'4 4.3 340 / 171020.4 10.0 4.4
2019-Apr-20 21:00N 44°24' W 125°00'4 4.3 340 / 171020.2 9.8 3.9
2019-Apr-20 20:00N 44°24' W 124°54'0 0.0 340 / 191020.1 9.7 4.6
2019-Apr-20 19:00N 44°24' W 124°54'6 6.0 330 / 201019.7 9.7 4.6
2019-Apr-20 18:00N 44°18' W 124°54'0 0.0 330 / 191019.3 9.8 4.7
2019-Apr-20 17:00N 44°18' W 124°54'6 6.0 340 / 211018.6 9.8 4.7
2019-Apr-20 16:00N 44°24' W 124°54'7 7.4 350 / 171018.4 9.8 4.4
2019-Apr-20 15:00N 44°18' W 125°00'0 0.0 340 / 191018.0 9.6 5.3
2019-Apr-20 14:00N 44°18' W 125°00'0 0.0 360 / 211017.6 9.6 4.4
2019-Apr-20 13:00N 44°18' W 125°00'7 7.4 350 / 221017.1 9.7 5.4
2019-Apr-20 12:00N 44°24' W 124°54'4 4.3 350 / 251016.7 10.1 4.8
2019-Apr-20 11:00N 44°24' W 124°48'1010.5 350 / 251016.2 10.2 5.3
2019-Apr-20 10:00N 44°30' W 124°36'1010.4 350 / 271015.6 10.3 6.7
2019-Apr-20 09:00N 44°36' W 124°24'4 4.3 350 / 261015.7 10.6 7.9
2019-Apr-20 08:00N 44°36' W 124°18'0 0.0 340 / 201015.6 10.9 8.2
2019-Apr-20 07:00N 44°36' W 124°18'0 0.0 340 / 171015.8 10.8 8.6
2019-Apr-20 06:00N 44°36' W 124°18'0 0.0 340 / 221015.4 10.7 9.1
2019-Apr-20 05:00N 44°36' W 124°18'4 4.3 350 / 191015.5 10.8 9.4
2019-Apr-20 04:00N 44°36' W 124°12'7 7.4 340 / 211014.9 11.0 9.5
2019-Apr-20 03:00N 44°42' W 124°06'0 0.0 350 / 191014.7 11.5 9.7
2019-Apr-20 02:00N 44°42' W 124°06'0 0.0 010 / 171014.0 11.510.0
2019-Apr-20 01:00N 44°42' W 124°06'1010.4 340 / 191014.6 11.410.1
2019-Apr-20 00:00N 44°36' W 124°18'0 0.0 1015.0 11.110.0
2019-Apr-19 23:00N 44°36' W 124°18'0 0.0 360 / 131015.3 11.210.3
2019-Apr-19 22:00N 44°36' W 124°18'9 8.5 010 / 161015.4 11.110.6
2019-Apr-19 21:00N 44°36' W 124°06'4 4.3 320 / 91015.8 11.410.7
2019-Apr-19 20:00N 44°36' W 124°00'0 0.0 320 / 61015.9 11.810.9
2019-Apr-19 19:00N 44°36' W 124°00'0 0.0 310 / 41016.4 11.911.1
2019-Apr-19 18:00N 44°36' W 124°00'0 0.0 280 / 21016.5 12.411.3
2019-Apr-19 17:00N 44°36' W 124°00'0 0.0 270 / 31016.5 12.411.2
2019-Apr-19 16:00N 44°36' W 124°00'0 0.0 150 / 11016.7 11.910.8
2019-Apr-19 15:00N 44°36' W 124°00'0 0.0 130 / 41016.8 11.610.7
2019-Apr-19 14:00N 44°36' W 124°00'0 0.0 350 / 21016.9 11.710.8
2019-Apr-19 13:00N 44°36' W 124°00'0 0.0 310 / 51017.3 12.010.8
2019-Apr-19 12:00N 44°36' W 124°00'0 0.0 330 / 51017.4 12.010.7
2019-Apr-19 11:00N 44°36' W 124°00'0 0.0 330 / 21017.5 11.710.8
2019-Apr-19 10:00N 44°36' W 124°00'0 0.0 320 / 31017.3 11.810.9
2019-Apr-19 09:00N 44°36' W 124°00'0 0.0 030 / 11017.8 12.010.9
2019-Apr-19 08:00N 44°36' W 124°00'0 0.0 120 / 21018.4 11.910.7
2019-Apr-19 07:00N 44°36' W 124°00'0 0.0 130 / 11018.6 12.010.8
2019-Apr-19 06:00N 44°36' W 124°00'0 0.0 030 / 21019.1 12.510.6
2019-Apr-19 05:00N 44°36' W 124°00'0 0.0 010 / 31019.6 12.710.5
2019-Apr-19 04:00N 44°36' W 124°00'0 0.0 330 / 41019.7 12.710.3
2019-Apr-19 03:00N 44°36' W 124°00'0 0.0 320 / 61019.7 12.710.4
2019-Apr-19 02:00N 44°36' W 124°00'0 0.0 310 / 41019.9 13.810.3
2019-Apr-19 01:00N 44°36' W 124°00'0 0.0 270 / 21020.2 15.810.2
2019-Apr-19 00:00N 44°36' W 124°00'0 0.0 310 / 51020.6 15.2 9.6
2019-Apr-18 23:00N 44°36' W 124°00'0 0.0 300 / 61020.8 14.7 9.5
2019-Apr-18 22:00N 44°36' W 124°00'0 0.0 310 / 81021.2 14.9 9.8
2019-Apr-18 21:00N 44°36' W 124°00'0 0.0 310 / 71021.5 15.9 9.8
2019-Apr-18 20:00N 44°36' W 124°00'0 0.0 310 / 71022.0 15.010.0
2019-Apr-18 19:00N 44°36' W 124°00'0 0.0 300 / 31022.2 16.410.2
2019-Apr-18 18:00N 44°36' W 124°00'0 0.0 130 / 11022.7 16.710.6
2019-Apr-18 17:00N 44°36' W 124°00'0 0.0 320 / 31023.5 12.810.4
2019-Apr-18 16:00N 44°36' W 124°00'0 0.0 140 / 11023.5 12.2 9.5
2019-Apr-18 15:00N 44°36' W 124°00'0 0.0 140 / 71023.3 10.3 8.8
2019-Apr-18 14:00N 44°36' W 124°00'0 0.0 120 / 51023.5 9.6 8.6
2019-Apr-18 13:00N 44°36' W 124°00'0 0.0 120 / 81023.7 9.5 8.6
2019-Apr-18 12:00N 44°36' W 124°00'0 0.0 100 / 61024.4 9.4 8.5
2019-Apr-18 11:00N 44°36' W 124°00'0 0.0 120 / 61024.5 9.8 8.9
2019-Apr-18 10:00N 44°36' W 124°00'0 0.0 090 / 41024.8 9.4 8.4
2019-Apr-18 09:00N 44°36' W 124°00'0 0.0 090 / 31025.2 9.8 8.6
2019-Apr-18 08:00N 44°36' W 124°00'0 0.0 100 / 41025.6 10.2 8.5
2019-Apr-18 07:00N 44°36' W 124°00'0 0.0 110 / 61025.6 10.6 9.0
2019-Apr-18 06:00N 44°36' W 124°00'0 0.0 100 / 41026.0 10.9 9.3
2019-Apr-18 05:00N 44°36' W 124°00'0 0.0 100 / 31026.2 11.7 8.4
2019-Apr-18 04:00N 44°36' W 124°00'0 0.0 270 / 11026.1 11.7 8.5
2019-Apr-18 03:00N 44°36' W 124°00'0 0.0 310 / 31025.6 12.2 8.3
2019-Apr-18 02:00N 44°36' W 124°00'0 0.0 290 / 31025.8 13.2 8.4
2019-Apr-18 01:00N 44°36' W 124°00'0 0.0 260 / 31026.1 14.4 7.8
2019-Apr-18 00:00N 44°36' W 124°00'0 0.0 270 / 21026.3 14.5 8.1
2019-Apr-17 23:00N 44°36' W 124°00'0 0.0 270 / 41027.0 12.7 8.2
2019-Apr-17 22:00N 44°36' W 124°00'0 0.0 260 / 61027.4 13.1 8.2
2019-Apr-17 21:00N 44°36' W 124°00'0 0.0 240 / 71027.6 12.4 8.0
2019-Apr-17 20:00N 44°36' W 124°00'0 0.0 250 / 101027.9 12.8 8.2
2019-Apr-17 19:00N 44°36' W 124°00'0 0.0 230 / 131027.9 12.0 7.0
2019-Apr-17 18:00N 44°36' W 124°00'0 0.0 230 / 111027.4 11.8 7.5
2019-Apr-17 17:00N 44°36' W 124°00'0 0.0 230 / 81027.0 11.4 7.8
2019-Apr-17 16:00N 44°36' W 124°00'0 0.0 120 / 51026.6 10.5 8.3
2019-Apr-17 15:00N 44°36' W 124°00'0 0.0 150 / 51026.4 9.9 8.2
2019-Apr-17 14:00N 44°36' W 124°00'0 0.0 150 / 51025.7 9.8 8.1
2019-Apr-17 13:00N 44°36' W 124°00'0 0.0 150 / 61025.0 9.8 8.3
2019-Apr-17 12:00N 44°36' W 124°00'0 0.0 180 / 31025.2 9.8 8.2
2019-Apr-17 11:00N 44°36' W 124°00'0 0.0 170 / 41025.0 9.8 8.2
2019-Apr-17 10:00N 44°36' W 124°00'0 0.0 170 / 41024.6 10.1 8.3
2019-Apr-17 09:00N 44°36' W 124°00'0 0.0 170 / 61024.1 10.0 8.4
2019-Apr-17 08:00N 44°36' W 124°00'0 0.0 230 / 51023.9 9.8 8.2
2019-Apr-17 07:00N 44°36' W 124°00'0 0.0 190 / 21023.6 9.9 8.6
2019-Apr-17 06:00N 44°36' W 124°00'0 0.0 260 / 71023.5 10.5 7.7
2019-Apr-17 05:00N 44°36' W 124°00'0 0.0 250 / 41023.1 10.6 8.7
2019-Apr-17 04:00N 44°36' W 124°00'0 0.0 220 / 41022.2 10.3 8.2
2019-Apr-17 03:00N 44°36' W 124°00'0 0.0 230 / 71021.6 10.4 8.3
2019-Apr-17 02:00N 44°36' W 124°00'0 0.0 250 / 81021.2 10.1 8.7
2019-Apr-17 01:00N 44°36' W 124°00'0 0.0 220 / 101020.9 11.3 8.0
2019-Apr-17 00:00N 44°36' W 124°00'0 0.0 230 / 131020.4 11.7 8.1
2019-Apr-16 23:00N 44°36' W 124°00'0 0.0 230 / 101019.9 11.9 8.4
2019-Apr-16 22:00N 44°36' W 124°00'0 0.0 210 / 101019.5 12.3 8.4
2019-Apr-16 21:00N 44°36' W 124°00'0 0.0 220 / 161018.6 12.2 8.2
2019-Apr-16 20:00N 44°36' W 124°00'0 0.0 250 / 111017.9 10.6 9.1
2019-Apr-16 19:00N 44°36' W 124°00'0 0.0 200 / 121017.2 11.5 9.1
2019-Apr-16 18:00N 44°36' W 124°00'0 0.0 210 / 111016.2 11.4 8.6
2019-Apr-16 17:00N 44°36' W 124°00'0 0.0 190 / 51015.5 10.4 8.4
2019-Apr-16 16:00N 44°36' W 124°00'0 0.0 120 / 51014.7 9.8 7.7
2019-Apr-16 15:00N 44°36' W 124°00'0 0.0 090 / 71013.7 9.6 6.9
2019-Apr-16 14:00N 44°36' W 124°00'0 0.0 100 / 81012.8 9.1 6.8
2019-Apr-16 13:00N 44°36' W 124°00'0 0.0 110 / 51011.9 8.9 7.2
2019-Apr-16 12:00N 44°36' W 124°00'0 0.0 110 / 61011.4 8.5 6.8
2019-Apr-16 11:00N 44°36' W 124°00'0 0.0 110 / 81010.7 8.5 6.4
2019-Apr-16 10:00N 44°36' W 124°00'0 0.0 100 / 91009.8 8.4 6.2
2019-Apr-16 09:00N 44°36' W 124°00'0 0.0 110 / 91009.4 8.4 6.2
2019-Apr-16 08:00N 44°36' W 124°00'0 0.0 100 / 101008.8 8.2 6.3
2019-Apr-16 07:00N 44°36' W 124°00'0 0.0 090 / 101008.0 8.7 5.9
2019-Apr-16 06:00N 44°36' W 124°00'0 0.0 090 / 91007.4 8.0 6.1
2019-Apr-16 05:00N 44°36' W 124°00'0 0.0 100 / 91006.9 8.2 6.1
2019-Apr-16 04:00N 44°36' W 124°00'0 0.0 100 / 111005.7 8.1 6.1
2019-Apr-16 03:00N 44°36' W 124°00'0 0.0 090 / 101005.0 7.9 5.9
2019-Apr-16 02:00N 44°36' W 124°00'0 0.0 070 / 131004.8 7.9 5.8
2019-Apr-16 01:00N 44°36' W 124°00'0 0.0 080 / 111004.9 8.2 5.9
2019-Apr-16 00:00N 44°36' W 124°00'0 0.0 070 / 61005.3 8.5 5.9
2019-Apr-15 23:00N 44°36' W 124°00'0 0.0 100 / 61005.6 8.9 4.4
2019-Apr-15 22:00N 44°36' W 124°00'0 0.0 150 / 81005.9 9.1 4.7
2019-Apr-15 21:00N 44°36' W 124°00'0 0.0 070 / 61005.7 8.7 4.9
2019-Apr-15 20:00N 44°36' W 124°00'0 0.0 080 / 91006.0 8.0 4.1
2019-Apr-15 19:00N 44°36' W 124°00'0 0.0 100 / 81006.7 7.8 4.0
2019-Apr-15 18:00N 44°36' W 124°00'0 0.0 080 / 101006.8 7.9 3.0
2019-Apr-15 17:00N 44°36' W 124°00'0 0.0 090 / 81007.1 6.5 3.4
2019-Apr-15 16:00N 44°36' W 124°00'0 0.0 090 / 131007.3 6.1 2.8
2019-Apr-15 15:00N 44°36' W 124°00'0 0.0 090 / 121007.7 5.5 2.4
2019-Apr-15 14:00N 44°36' W 124°00'0 0.0 090 / 101008.3 5.3 2.6
2019-Apr-15 13:00N 44°36' W 124°00'0 0.0 090 / 101009.5 5.1 2.7
2019-Apr-15 12:00N 44°36' W 124°00'0 0.0 090 / 101009.9 5.6 3.2
2019-Apr-15 11:00N 44°36' W 124°00'0 0.0 100 / 71011.0 5.4 3.3
2019-Apr-15 10:00N 44°36' W 124°00'0 0.0 100 / 71011.8 6.1 3.7
2019-Apr-15 09:00N 44°36' W 124°00'0 0.0 090 / 71012.4 6.5 3.9
2019-Apr-15 08:00N 44°36' W 124°00'0 0.0 090 / 61012.8 6.4 4.3
2019-Apr-15 07:00N 44°36' W 124°00'0 0.0 110 / 51013.4 6.9 4.5
2019-Apr-15 06:00N 44°36' W 124°00'0 0.0 110 / 51013.7 7.3 4.5
2019-Apr-15 05:00N 44°36' W 124°00'0 0.0 130 / 21013.8 7.9 4.9
2019-Apr-15 04:00N 44°36' W 124°00'0 0.0 180 / 61013.9 8.4 3.8
2019-Apr-15 03:00N 44°36' W 124°00'0 0.0 260 / 61014.2 9.7 3.5
2019-Apr-15 02:00N 44°36' W 124°00'0 0.0 250 / 51014.4 9.8 3.3
2019-Apr-15 01:00N 44°36' W 124°00'0 0.0 260 / 71014.7 10.0 2.2
2019-Apr-15 00:00N 44°36' W 124°00'0 0.0 190 / 71014.7 8.8 4.4
2019-Apr-14 23:00N 44°36' W 124°00'0 0.0 210 / 91015.3 9.8 3.3
2019-Apr-14 22:00N 44°36' W 124°00'0 0.0 230 / 111015.8 9.2 3.5
2019-Apr-14 21:00N 44°36' W 124°00'   250 / 101015.7 9.8 3.3
Track history (hours):
 
Tides and Currents Weather Stations Pressure Air Temp Water Temp Dewpoint Dewpoint Depression Visibility Wind Speed Wind Dir Waves Ship Positions

Oceanographic research ship Sikuliaq (USA)

Owner: Mackay Communications, Raleigh, NC. More information available from US FCC via Universal Licensing System.

Last reported at 2019-Apr-24 21:00 UTC. Time now 2019-Apr-24 22:26 UTC.
Position N 46°48' W 124°54'.

Length 80 m; draft 6.2 m.

Type: Other ship. MMSI: 338417000.

Wind from 340 at 15 knots

Barometer 1028.9 mb
Air temperature 9.5 ° C
Dewpoint 3.4 ° C

Date/timePositionNaut miles runAvg speedWind from/ knotsBaromVisibWave heightAir tempDewpointWater temp
2019-Apr-24 21:00N 46°48' W 124°54'3 6.5 340 / 151028.9 9.5 3.4
2019-Apr-24 20:32N 46°51' W 124°56'0 0.4
2019-Apr-24 20:14N 46°50' W 124°56'1 4.3
2019-Apr-24 20:00N 46°50' W 124°58'3180.3
2019-Apr-24 20:00N 46°48' W 125°00'611.0 340 / 171028.9 9.7 3.9
2019-Apr-24 19:28N 46°52' W 124°53'4 9.3
2019-Apr-24 19:00N 46°54' W 124°48'0301.3 350 / 161029.0 9.8 3.5
2019-Apr-24 18:59N 46°54' W 124°47'10 9.9
2019-Apr-24 18:00N 47°00' W 124°36'0 0.0 350 / 131028.7 9.8 3.2
2019-Apr-24 17:00N 47°00' W 124°36'0 0.0 350 / 131028.3 9.7 3.7
2019-Apr-24 16:00N 47°00' W 124°36'0 0.0 350 / 161028.0 9.8 4.6
2019-Apr-24 15:00N 47°00' W 124°36'0 0.0 340 / 141028.2 9.7 4.1
2019-Apr-24 14:00N 47°00' W 124°36'4 4.1 350 / 141027.5 9.7 2.9
2019-Apr-24 13:08N 46°57' W 124°34'111.2
2019-Apr-24 13:00N 46°55' W 124°33'2228.7
2019-Apr-24 13:00N 46°54' W 124°36'5 9.8 350 / 171026.6 9.4 3.6
2019-Apr-24 12:31N 46°50' W 124°32'611.5
2019-Apr-24 12:01N 46°44' W 124°31'2139.1
2019-Apr-24 12:00N 46°42' W 124°30'3 6.8 350 / 201026.4 9.3 2.7
2019-Apr-24 11:31N 46°39' W 124°30'611.1
2019-Apr-24 11:00N 46°33' W 124°29'3203.9
2019-Apr-24 11:00N 46°30' W 124°30'3 5.4 340 / 191026.3 9.3 3.2
2019-Apr-24 10:30N 46°28' W 124°28'510.6
2019-Apr-24 10:01N 46°23' W 124°27'2133.5
2019-Apr-24 10:00N 46°24' W 124°24'714.2 340 / 211026.1 9.4 2.7
2019-Apr-24 09:31N 46°17' W 124°26'611.2
2019-Apr-24 09:01N 46°12' W 124°25'142.8
2019-Apr-24 09:00N 46°12' W 124°24'611.9 340 / 171026.0 9.6 3.0
2019-Apr-24 08:30N 46°06' W 124°24'510.7
2019-Apr-24 08:00N 46°01' W 124°24'155.8
2019-Apr-24 08:00N 46°00' W 124°24'5 9.4 340 / 221025.6 9.8 3.1
2019-Apr-24 07:30N 45°55' W 124°25'714.5
2019-Apr-24 07:00N 45°48' W 124°24'24170.2 340 / 201025.4 9.8 1.3
2019-Apr-24 06:59N 45°50' W 124°26'510.9
2019-Apr-24 06:30N 45°45' W 124°26'510.9
2019-Apr-24 06:00N 45°39' W 124°26'3184.4
2019-Apr-24 06:00N 45°42' W 124°24'817.1 350 / 201025.4 10.0 1.8
2019-Apr-24 05:30N 45°34' W 124°26'611.2
2019-Apr-24 05:00N 45°28' W 124°24'2202.6
2019-Apr-24 05:00N 45°30' W 124°24'715.2 350 / 211025.1 10.2 3.6
2019-Apr-24 04:30N 45°23' W 124°23'611.3
2019-Apr-24 04:00N 45°17' W 124°23'194.3
2019-Apr-24 04:00N 45°18' W 124°24'1012.6 350 / 191024.6 10.2 4.1
2019-Apr-24 03:11N 45°08' W 124°22'212.2
2019-Apr-24 03:00N 45°06' W 124°24'1312.7 1024.2 10.4 4.6
2019-Apr-24 02:00N 44°54' W 124°18'7 7.4 350 / 181024.2 10.5 6.0
2019-Apr-24 01:00N 44°48' W 124°12'1312.7 360 / 191024.3 10.4 7.4
2019-Apr-24 00:00N 44°36' W 124°06'4 4.3 350 / 191024.0 10.2 8.4
2019-Apr-23 23:00N 44°36' W 124°00'0 0.0 320 / 141024.1 11.6 7.6
2019-Apr-23 22:00N 44°36' W 124°00'0 0.0 320 / 111024.6 11.8 8.5
2019-Apr-23 21:00N 44°36' W 124°00'0 0.0 330 / 101024.8 11.9 8.9
2019-Apr-23 20:00N 44°36' W 124°00'0 0.0 320 / 81024.8 11.4 9.3
2019-Apr-23 19:00N 44°36' W 124°00'0 0.0 320 / 81024.9 11.610.4
2019-Apr-23 18:00N 44°36' W 124°00'0 0.0 310 / 41024.6 12.310.6
2019-Apr-23 17:00N 44°36' W 124°00'0 0.0 260 / 61024.5 11.610.7
2019-Apr-23 16:00N 44°36' W 124°00'0 0.0 330 / 21024.6 11.2 9.7
2019-Apr-23 15:00N 44°36' W 124°00'0 0.0 110 / 51023.8 10.5 8.8
2019-Apr-23 14:00N 44°36' W 124°00'0 0.0 090 / 51023.8 10.3 8.5
2019-Apr-23 13:00N 44°36' W 124°00'0 0.0 100 / 41023.6 10.3 8.0
2019-Apr-23 12:00N 44°36' W 124°00'0 0.0 100 / 31023.6 10.5 7.9
2019-Apr-23 11:00N 44°36' W 124°00'0 0.0 100 / 51023.6 10.6 7.5
2019-Apr-23 10:00N 44°36' W 124°00'0 0.0 080 / 41023.8 10.3 7.4
2019-Apr-23 09:00N 44°36' W 124°00'0 0.0 090 / 51024.1 10.7 7.0
2019-Apr-23 08:00N 44°36' W 124°00'0 0.0 100 / 31024.4 10.5 7.8
2019-Apr-23 07:00N 44°36' W 124°00'0 0.0 010 / 21024.4 11.1 7.7
2019-Apr-23 06:00N 44°36' W 124°00'0 0.0 110 / 31024.3 10.6 7.3
2019-Apr-23 05:00N 44°36' W 124°00'0 0.0 100 / 41024.8 10.7 8.2
2019-Apr-23 04:00N 44°36' W 124°00'0 0.0 140 / 31024.9 10.8 6.9
2019-Apr-23 03:00N 44°36' W 124°00'0 0.0 320 / 31025.0 11.3 7.1
2019-Apr-23 02:00N 44°36' W 124°00'0 0.0 310 / 21025.2 12.8 3.1
2019-Apr-23 01:00N 44°36' W 124°00'0 0.0 260 / 31025.6 13.4 5.3
2019-Apr-23 00:00N 44°36' W 124°00'0 0.0 250 / 11025.4 14.1 6.0
2019-Apr-22 23:00N 44°36' W 124°00'0 0.0 250 / 21025.8 13.2 6.1
2019-Apr-22 22:00N 44°36' W 124°00'0 0.0 280 / 21026.5 12.4 8.2
2019-Apr-22 21:00N 44°36' W 124°00'0 0.0 300 / 41026.6 11.9 8.3
2019-Apr-22 20:00N 44°36' W 124°00'0 0.0 280 / 31026.5 12.1 8.0
2019-Apr-22 19:00N 44°36' W 124°00'0 0.0 260 / 61026.1 12.6 8.3
2019-Apr-22 18:00N 44°36' W 124°00'0 0.0 140 / 41025.3 14.0 7.7
2019-Apr-22 17:00N 44°36' W 124°00'0 0.0 130 / 61025.8 10.5 7.1
2019-Apr-22 16:00N 44°36' W 124°00'0 0.0 140 / 71026.3 7.7 6.1
2019-Apr-22 15:00N 44°36' W 124°00'0 0.0 120 / 81026.8 7.0 5.2
2019-Apr-22 14:00N 44°36' W 124°00'0 0.0 110 / 81026.1 6.4 5.0
2019-Apr-22 13:00N 44°36' W 124°00'0 0.0 100 / 71025.7 6.3 5.3
2019-Apr-22 12:00N 44°36' W 124°00'0 0.0 100 / 61025.4 6.6 5.6
2019-Apr-22 11:00N 44°36' W 124°00'0 0.0 100 / 51025.4 6.5 5.2
2019-Apr-22 10:00N 44°36' W 124°00'0 0.0 100 / 51025.5 6.9 5.6
2019-Apr-22 09:00N 44°36' W 124°00'0 0.0 100 / 51026.1 7.4 5.8
2019-Apr-22 08:00N 44°36' W 124°00'0 0.0 090 / 31026.8 8.3 6.1
2019-Apr-22 07:00N 44°36' W 124°00'0 0.0 100 / 51026.8 8.6 5.7
2019-Apr-22 06:00N 44°36' W 124°00'0 0.0 040 / 11027.0 9.2 5.8
2019-Apr-22 05:00N 44°36' W 124°00'0 0.0 070 / 41026.8 9.5 5.6
2019-Apr-22 04:00N 44°36' W 124°00'0 0.0 070 / 41026.9 9.7 5.1
2019-Apr-22 03:00N 44°36' W 124°00'0 0.0 350 / 121026.3 10.1 5.2
2019-Apr-22 02:00N 44°36' W 124°00'0 0.0 330 / 111026.2 10.5 5.3
2019-Apr-22 01:00N 44°36' W 124°00'0 0.0 330 / 101026.3 10.8 5.2
2019-Apr-22 00:00N 44°36' W 124°00'0 0.0 320 / 111026.6 11.0 4.9
2019-Apr-21 23:00N 44°36' W 124°00'4 4.3 320 / 121027.1 10.7 4.8
2019-Apr-21 22:00N 44°36' W 124°06'6 6.0 330 / 151027.3 10.3 5.2
2019-Apr-21 21:00N 44°42' W 124°06'7 7.4 350 / 131027.5 10.1 4.7
2019-Apr-21 20:00N 44°36' W 124°12'4 4.3 350 / 111027.4 10.0 4.1
2019-Apr-21 19:00N 44°36' W 124°18'0 0.0 020 / 111027.9 10.0 3.9
2019-Apr-21 18:00N 44°36' W 124°18'0 0.0 010 / 91027.8 9.9 3.9
2019-Apr-21 17:00N 44°36' W 124°18'0 0.0 350 / 101027.8 10.0 4.3
2019-Apr-21 16:00N 44°36' W 124°18'0 0.0 1027.3 10.2 5.1
2019-Apr-21 15:00N 44°36' W 124°18'0 0.0 350 / 111026.7 10.2 5.5
2019-Apr-21 14:00N 44°36' W 124°18'0 0.0 330 / 121026.2 10.0 5.4
2019-Apr-21 13:00N 44°36' W 124°18'0 0.0 330 / 121026.1 10.3 4.5
2019-Apr-21 12:00N 44°36' W 124°18'0 0.0 350 / 81025.5 10.2 4.1
2019-Apr-21 11:00N 44°36' W 124°18'0 0.0 320 / 101025.1 10.1 4.9
2019-Apr-21 10:00N 44°36' W 124°18'9 8.5 340 / 111024.6 10.1 4.6
2019-Apr-21 09:00N 44°36' W 124°30'9 8.5 350 / 101024.3 10.0 4.0
2019-Apr-21 08:00N 44°36' W 124°42'4 4.3 320 / 111024.2 10.0 4.0
2019-Apr-21 07:00N 44°36' W 124°48'7 7.4 010 / 101023.8 10.1 4.4
2019-Apr-21 06:00N 44°30' W 124°54'7 7.4 340 / 141023.4 10.1 4.0
2019-Apr-21 05:00N 44°24' W 125°00'0 0.0 340 / 151023.3 9.9 2.8
2019-Apr-21 04:00N 44°24' W 125°00'0 0.0 350 / 141022.8 10.0 2.9
2019-Apr-21 03:00N 44°24' W 125°00'0 0.0 340 / 161022.2 9.9 2.9
2019-Apr-21 02:00N 44°24' W 125°00'0 0.0 350 / 181021.8 10.0 4.3
2019-Apr-21 01:00N 44°24' W 125°00'4 4.3 340 / 161021.4 10.0 4.1
2019-Apr-21 00:00N 44°24' W 124°54'0 0.0 330 / 171021.2 9.9 4.7
2019-Apr-20 23:00N 44°24' W 124°54'0 0.0 350 / 161020.7 10.0 3.9
2019-Apr-20 22:00N 44°24' W 124°54'4 4.3 340 / 171020.4 10.0 4.4
2019-Apr-20 21:00N 44°24' W 125°00'4 4.3 340 / 171020.2 9.8 3.9
2019-Apr-20 20:00N 44°24' W 124°54'0 0.0 340 / 191020.1 9.7 4.6
2019-Apr-20 19:00N 44°24' W 124°54'6 6.0 330 / 201019.7 9.7 4.6
2019-Apr-20 18:00N 44°18' W 124°54'0 0.0 330 / 191019.3 9.8 4.7
2019-Apr-20 17:00N 44°18' W 124°54'6 6.0 340 / 211018.6 9.8 4.7
2019-Apr-20 16:00N 44°24' W 124°54'7 7.4 350 / 171018.4 9.8 4.4
2019-Apr-20 15:00N 44°18' W 125°00'0 0.0 340 / 191018.0 9.6 5.3
2019-Apr-20 14:00N 44°18' W 125°00'0 0.0 360 / 211017.6 9.6 4.4
2019-Apr-20 13:00N 44°18' W 125°00'7 7.4 350 / 221017.1 9.7 5.4
2019-Apr-20 12:00N 44°24' W 124°54'4 4.3 350 / 251016.7 10.1 4.8
2019-Apr-20 11:00N 44°24' W 124°48'1010.5 350 / 251016.2 10.2 5.3
2019-Apr-20 10:00N 44°30' W 124°36'1010.4 350 / 271015.6 10.3 6.7
2019-Apr-20 09:00N 44°36' W 124°24'4 4.3 350 / 261015.7 10.6 7.9
2019-Apr-20 08:00N 44°36' W 124°18'0 0.0 340 / 201015.6 10.9 8.2
2019-Apr-20 07:00N 44°36' W 124°18'0 0.0 340 / 171015.8 10.8 8.6
2019-Apr-20 06:00N 44°36' W 124°18'0 0.0 340 / 221015.4 10.7 9.1
2019-Apr-20 05:00N 44°36' W 124°18'4 4.3 350 / 191015.5 10.8 9.4
2019-Apr-20 04:00N 44°36' W 124°12'7 7.4 340 / 211014.9 11.0 9.5
2019-Apr-20 03:00N 44°42' W 124°06'0 0.0 350 / 191014.7 11.5 9.7
2019-Apr-20 02:00N 44°42' W 124°06'0 0.0 010 / 171014.0 11.510.0
2019-Apr-20 01:00N 44°42' W 124°06'1010.4 340 / 191014.6 11.410.1
2019-Apr-20 00:00N 44°36' W 124°18'0 0.0 1015.0 11.110.0
2019-Apr-19 23:00N 44°36' W 124°18'0 0.0 360 / 131015.3 11.210.3
2019-Apr-19 22:00N 44°36' W 124°18'9 8.5 010 / 161015.4 11.110.6
2019-Apr-19 21:00N 44°36' W 124°06'4 4.3 320 / 91015.8 11.410.7
2019-Apr-19 20:00N 44°36' W 124°00'0 0.0 320 / 61015.9 11.810.9
2019-Apr-19 19:00N 44°36' W 124°00'0 0.0 310 / 41016.4 11.911.1
2019-Apr-19 18:00N 44°36' W 124°00'0 0.0 280 / 21016.5 12.411.3
2019-Apr-19 17:00N 44°36' W 124°00'0 0.0 270 / 31016.5 12.411.2
2019-Apr-19 16:00N 44°36' W 124°00'0 0.0 150 / 11016.7 11.910.8
2019-Apr-19 15:00N 44°36' W 124°00'0 0.0 130 / 41016.8 11.610.7
2019-Apr-19 14:00N 44°36' W 124°00'0 0.0 350 / 21016.9 11.710.8
2019-Apr-19 13:00N 44°36' W 124°00'0 0.0 310 / 51017.3 12.010.8
2019-Apr-19 12:00N 44°36' W 124°00'0 0.0 330 / 51017.4 12.010.7
2019-Apr-19 11:00N 44°36' W 124°00'0 0.0 330 / 21017.5 11.710.8
2019-Apr-19 10:00N 44°36' W 124°00'0 0.0 320 / 31017.3 11.810.9
2019-Apr-19 09:00N 44°36' W 124°00'0 0.0 030 / 11017.8 12.010.9
2019-Apr-19 08:00N 44°36' W 124°00'0 0.0 120 / 21018.4 11.910.7
2019-Apr-19 07:00N 44°36' W 124°00'0 0.0 130 / 11018.6 12.010.8
2019-Apr-19 06:00N 44°36' W 124°00'0 0.0 030 / 21019.1 12.510.6
2019-Apr-19 05:00N 44°36' W 124°00'0 0.0 010 / 31019.6 12.710.5
2019-Apr-19 04:00N 44°36' W 124°00'0 0.0 330 / 41019.7 12.710.3
2019-Apr-19 03:00N 44°36' W 124°00'0 0.0 320 / 61019.7 12.710.4
2019-Apr-19 02:00N 44°36' W 124°00'0 0.0 310 / 41019.9 13.810.3
2019-Apr-19 01:00N 44°36' W 124°00'0 0.0 270 / 21020.2 15.810.2
2019-Apr-19 00:00N 44°36' W 124°00'0 0.0 310 / 51020.6 15.2 9.6
2019-Apr-18 23:00N 44°36' W 124°00'0 0.0 300 / 61020.8 14.7 9.5
2019-Apr-18 22:00N 44°36' W 124°00'0 0.0 310 / 81021.2 14.9 9.8
2019-Apr-18 21:00N 44°36' W 124°00'0 0.0 310 / 71021.5 15.9 9.8
2019-Apr-18 20:00N 44°36' W 124°00'0 0.0 310 / 71022.0 15.010.0
2019-Apr-18 19:00N 44°36' W 124°00'0 0.0 300 / 31022.2 16.410.2
2019-Apr-18 18:00N 44°36' W 124°00'0 0.0 130 / 11022.7 16.710.6
2019-Apr-18 17:00N 44°36' W 124°00'0 0.0 320 / 31023.5 12.810.4
2019-Apr-18 16:00N 44°36' W 124°00'0 0.0 140 / 11023.5 12.2 9.5
2019-Apr-18 15:00N 44°36' W 124°00'0 0.0 140 / 71023.3 10.3 8.8
2019-Apr-18 14:00N 44°36' W 124°00'0 0.0 120 / 51023.5 9.6 8.6
2019-Apr-18 13:00N 44°36' W 124°00'0 0.0 120 / 81023.7 9.5 8.6
2019-Apr-18 12:00N 44°36' W 124°00'0 0.0 100 / 61024.4 9.4 8.5
2019-Apr-18 11:00N 44°36' W 124°00'0 0.0 120 / 61024.5 9.8 8.9
2019-Apr-18 10:00N 44°36' W 124°00'0 0.0 090 / 41024.8 9.4 8.4
2019-Apr-18 09:00N 44°36' W 124°00'0 0.0 090 / 31025.2 9.8 8.6
2019-Apr-18 08:00N 44°36' W 124°00'0 0.0 100 / 41025.6 10.2 8.5
2019-Apr-18 07:00N 44°36' W 124°00'0 0.0 110 / 61025.6 10.6 9.0
2019-Apr-18 06:00N 44°36' W 124°00'0 0.0 100 / 41026.0 10.9 9.3
2019-Apr-18 05:00N 44°36' W 124°00'0 0.0 100 / 31026.2 11.7 8.4
2019-Apr-18 04:00N 44°36' W 124°00'0 0.0 270 / 11026.1 11.7 8.5
2019-Apr-18 03:00N 44°36' W 124°00'0 0.0 310 / 31025.6 12.2 8.3
2019-Apr-18 02:00N 44°36' W 124°00'0 0.0 290 / 31025.8 13.2 8.4
2019-Apr-18 01:00N 44°36' W 124°00'0 0.0 260 / 31026.1 14.4 7.8
2019-Apr-18 00:00N 44°36' W 124°00'0 0.0 270 / 21026.3 14.5 8.1
2019-Apr-17 23:00N 44°36' W 124°00'0 0.0 270 / 41027.0 12.7 8.2
2019-Apr-17 22:00N 44°36' W 124°00'0 0.0 260 / 61027.4 13.1 8.2
2019-Apr-17 21:00N 44°36' W 124°00'0 0.0 240 / 71027.6 12.4 8.0
2019-Apr-17 20:00N 44°36' W 124°00'0 0.0 250 / 101027.9 12.8 8.2
2019-Apr-17 19:00N 44°36' W 124°00'0 0.0 230 / 131027.9 12.0 7.0
2019-Apr-17 18:00N 44°36' W 124°00'0 0.0 230 / 111027.4 11.8 7.5
2019-Apr-17 17:00N 44°36' W 124°00'0 0.0 230 / 81027.0 11.4 7.8
2019-Apr-17 16:00N 44°36' W 124°00'0 0.0 120 / 51026.6 10.5 8.3
2019-Apr-17 15:00N 44°36' W 124°00'0 0.0 150 / 51026.4 9.9 8.2
2019-Apr-17 14:00N 44°36' W 124°00'0 0.0 150 / 51025.7 9.8 8.1
2019-Apr-17 13:00N 44°36' W 124°00'0 0.0 150 / 61025.0 9.8 8.3
2019-Apr-17 12:00N 44°36' W 124°00'0 0.0 180 / 31025.2 9.8 8.2
2019-Apr-17 11:00N 44°36' W 124°00'0 0.0 170 / 41025.0 9.8 8.2
2019-Apr-17 10:00N 44°36' W 124°00'0 0.0 170 / 41024.6 10.1 8.3
2019-Apr-17 09:00N 44°36' W 124°00'0 0.0 170 / 61024.1 10.0 8.4
2019-Apr-17 08:00N 44°36' W 124°00'0 0.0 230 / 51023.9 9.8 8.2
2019-Apr-17 07:00N 44°36' W 124°00'0 0.0 190 / 21023.6 9.9 8.6
2019-Apr-17 06:00N 44°36' W 124°00'0 0.0 260 / 71023.5 10.5 7.7
2019-Apr-17 05:00N 44°36' W 124°00'0 0.0 250 / 41023.1 10.6 8.7
2019-Apr-17 04:00N 44°36' W 124°00'0 0.0 220 / 41022.2 10.3 8.2
2019-Apr-17 03:00N 44°36' W 124°00'0 0.0 230 / 71021.6 10.4 8.3
2019-Apr-17 02:00N 44°36' W 124°00'0 0.0 250 / 81021.2 10.1 8.7
2019-Apr-17 01:00N 44°36' W 124°00'0 0.0 220 / 101020.9 11.3 8.0
2019-Apr-17 00:00N 44°36' W 124°00'0 0.0 230 / 131020.4 11.7 8.1
2019-Apr-16 23:00N 44°36' W 124°00'0 0.0 230 / 101019.9 11.9 8.4
2019-Apr-16 22:00N 44°36' W 124°00'0 0.0 210 / 101019.5 12.3 8.4
2019-Apr-16 21:00N 44°36' W 124°00'0 0.0 220 / 161018.6 12.2 8.2
2019-Apr-16 20:00N 44°36' W 124°00'0 0.0 250 / 111017.9 10.6 9.1
2019-Apr-16 19:00N 44°36' W 124°00'0 0.0 200 / 121017.2 11.5 9.1
2019-Apr-16 18:00N 44°36' W 124°00'0 0.0 210 / 111016.2 11.4 8.6
2019-Apr-16 17:00N 44°36' W 124°00'0 0.0 190 / 51015.5 10.4 8.4
2019-Apr-16 16:00N 44°36' W 124°00'0 0.0 120 / 51014.7 9.8 7.7
2019-Apr-16 15:00N 44°36' W 124°00'0 0.0 090 / 71013.7 9.6 6.9
2019-Apr-16 14:00N 44°36' W 124°00'0 0.0 100 / 81012.8 9.1 6.8
2019-Apr-16 13:00N 44°36' W 124°00'0 0.0 110 / 51011.9 8.9 7.2
2019-Apr-16 12:00N 44°36' W 124°00'0 0.0 110 / 61011.4 8.5 6.8
2019-Apr-16 11:00N 44°36' W 124°00'0 0.0 110 / 81010.7 8.5 6.4
2019-Apr-16 10:00N 44°36' W 124°00'0 0.0 100 / 91009.8 8.4 6.2
2019-Apr-16 09:00N 44°36' W 124°00'0 0.0 110 / 91009.4 8.4 6.2
2019-Apr-16 08:00N 44°36' W 124°00'0 0.0 100 / 101008.8 8.2 6.3
2019-Apr-16 07:00N 44°36' W 124°00'0 0.0 090 / 101008.0 8.7 5.9
2019-Apr-16 06:00N 44°36' W 124°00'0 0.0 090 / 91007.4 8.0 6.1
2019-Apr-16 05:00N 44°36' W 124°00'0 0.0 100 / 91006.9 8.2 6.1
2019-Apr-16 04:00N 44°36' W 124°00'0 0.0 100 / 111005.7 8.1 6.1
2019-Apr-16 03:00N 44°36' W 124°00'0 0.0 090 / 101005.0 7.9 5.9
2019-Apr-16 02:00N 44°36' W 124°00'0 0.0 070 / 131004.8 7.9 5.8
2019-Apr-16 01:00N 44°36' W 124°00'0 0.0 080 / 111004.9 8.2 5.9
2019-Apr-16 00:00N 44°36' W 124°00'0 0.0 070 / 61005.3 8.5 5.9
2019-Apr-15 23:00N 44°36' W 124°00'0 0.0 100 / 61005.6 8.9 4.4
2019-Apr-15 22:00N 44°36' W 124°00'0 0.0 150 / 81005.9 9.1 4.7
2019-Apr-15 21:00N 44°36' W 124°00'0 0.0 070 / 61005.7 8.7 4.9
2019-Apr-15 20:00N 44°36' W 124°00'0 0.0 080 / 91006.0 8.0 4.1
2019-Apr-15 19:00N 44°36' W 124°00'0 0.0 100 / 81006.7 7.8 4.0
2019-Apr-15 18:00N 44°36' W 124°00'0 0.0 080 / 101006.8 7.9 3.0
2019-Apr-15 17:00N 44°36' W 124°00'0 0.0 090 / 81007.1 6.5 3.4
2019-Apr-15 16:00N 44°36' W 124°00'0 0.0 090 / 131007.3 6.1 2.8
2019-Apr-15 15:00N 44°36' W 124°00'0 0.0 090 / 121007.7 5.5 2.4
2019-Apr-15 14:00N 44°36' W 124°00'0 0.0 090 / 101008.3 5.3 2.6
2019-Apr-15 13:00N 44°36' W 124°00'0 0.0 090 / 101009.5 5.1 2.7
2019-Apr-15 12:00N 44°36' W 124°00'0 0.0 090 / 101009.9 5.6 3.2
2019-Apr-15 11:00N 44°36' W 124°00'0 0.0 100 / 71011.0 5.4 3.3
2019-Apr-15 10:00N 44°36' W 124°00'0 0.0 100 / 71011.8 6.1 3.7
2019-Apr-15 09:00N 44°36' W 124°00'0 0.0 090 / 71012.4 6.5 3.9
2019-Apr-15 08:00N 44°36' W 124°00'0 0.0 090 / 61012.8 6.4 4.3
2019-Apr-15 07:00N 44°36' W 124°00'0 0.0 110 / 51013.4 6.9 4.5
2019-Apr-15 06:00N 44°36' W 124°00'0 0.0 110 / 51013.7 7.3 4.5
2019-Apr-15 05:00N 44°36' W 124°00'0 0.0 130 / 21013.8 7.9 4.9
2019-Apr-15 04:00N 44°36' W 124°00'0 0.0 180 / 61013.9 8.4 3.8
2019-Apr-15 03:00N 44°36' W 124°00'0 0.0 260 / 61014.2 9.7 3.5
2019-Apr-15 02:00N 44°36' W 124°00'0 0.0 250 / 51014.4 9.8 3.3
2019-Apr-15 01:00N 44°36' W 124°00'0 0.0 260 / 71014.7 10.0 2.2
2019-Apr-15 00:00N 44°36' W 124°00'0 0.0 190 / 71014.7 8.8 4.4
2019-Apr-14 23:00N 44°36' W 124°00'0 0.0 210 / 91015.3 9.8 3.3
2019-Apr-14 22:00N 44°36' W 124°00'0 0.0 230 / 111015.8 9.2 3.5
2019-Apr-14 21:00N 44°36' W 124°00'   250 / 101015.7 9.8 3.3

Dump ship's entire track history